.
WxDataArchive / Data Records for 2015-06-25
2015-06-24 June 2015 2015-06-26

Data Records for Thursday, 25 June 2015

Time	Temp	Chill	HIndex	Humid	Dewpt	 Wind 	HiWind	WindDir	Rain 	Barom
-----	----	-----	------	-----	-----	------	------	-------	-----	-----
00:00	68.1	68.1	68.1	70	57.9	0	0	---	0.00	30.063 
00:05	68.1	68.1	68.1	71	58.3	0	0	---	0.00	30.063 
00:10	68.1	68.1	68.1	72	58.7	0	0	---	0.00	30.063 
00:15	68.1	68.1	68.1	72	58.7	0	0	---	0.00	30.061 
00:20	68.1	68.1	68.1	71	58.3	0	0	---	0.00	30.061 
00:25	68.1	68.1	68.1	71	58.3	0	0	---	0.00	30.061 
00:30	68.1	68.1	68.1	73	59.1	0	0	---	0.00	30.054 
00:35	68.1	68.1	68.1	73	59.1	0	0	---	0.00	30.054 
00:40	68.1	68.1	68.1	73	59.1	0	0	---	0.00	30.054 
00:45	68.1	68.1	68.1	73	59.1	0	0	---	0.00	30.042 
00:50	68.1	68.1	68.1	74	59.5	0	0	---	0.00	30.042 
00:55	68.3	68.3	68.3	74	59.7	0	0	---	0.00	30.042 
01:00	68.3	68.3	68.3	75	60.1	0	0	---	0.00	30.035 
01:05	68.3	68.3	68.3	76	60.4	0	1	292	0.00	30.035 
01:10	68.1	68.1	68.1	76	60.2	0	0	---	0.00	30.035 
01:15	68.1	68.1	68.1	76	60.2	0	0	---	0.00	30.045 
01:20	67.9	67.9	67.9	76	60.0	0	0	---	0.00	30.045 
01:25	67.8	67.8	67.8	77	60.3	0	0	---	0.00	30.045 
01:30	67.8	67.8	67.8	77	60.3	0	0	---	0.00	30.039 
01:35	67.6	67.6	67.6	77	60.1	0	0	---	0.00	30.039 
01:40	67.6	67.6	67.6	78	60.5	0	0	---	0.00	30.039 
01:45	67.4	67.4	67.4	78	60.3	0	0	---	0.00	30.046 
01:50	67.4	67.4	67.4	79	60.7	0	0	---	0.00	30.046 
01:55	67.3	67.3	67.3	79	60.6	0	0	---	0.00	30.046 
02:00	67.3	67.3	67.3	79	60.6	0	0	---	0.00	30.032 
02:05	67.3	67.3	67.3	79	60.6	0	0	---	0.00	30.032 
02:10	67.3	67.3	67.3	79	60.6	0	0	---	0.00	30.032 
02:15	67.3	67.3	67.3	80	60.9	0	0	---	0.00	30.025 
02:20	67.1	67.1	67.1	80	60.7	0	0	---	0.00	30.025 
02:25	67.1	67.1	67.1	80	60.7	0	0	---	0.00	30.025 
02:30	66.9	66.9	66.9	80	60.5	0	0	---	0.00	30.028 
02:35	66.8	66.8	66.8	80	60.4	0	0	---	0.00	30.028 
02:40	66.6	66.6	66.6	79	59.9	0	0	---	0.00	30.028 
02:45	66.6	66.6	66.6	78	59.5	0	0	---	0.00	30.014 
02:50	66.4	66.4	66.4	78	59.3	0	0	---	0.00	30.014 
02:55	66.4	66.4	66.4	79	59.7	0	0	---	0.00	30.014 
03:00	66.3	66.3	66.3	80	59.9	0	0	---	0.00	30.005 
03:05	66.1	66.1	66.1	81	60.1	0	0	---	0.00	30.005 
03:10	65.8	65.8	65.8	81	59.8	0	0	---	0.00	30.005 
03:15	65.6	65.6	65.6	81	59.6	0	0	---	0.00	30.005 
03:20	65.6	65.6	65.6	80	59.3	0	0	---	0.00	30.005 
03:25	65.6	65.6	65.6	81	59.6	0	0	---	0.00	30.005 
03:30	65.8	65.8	65.8	81	59.8	0	0	---	0.00	29.990 
03:35	65.8	65.8	65.8	81	59.8	0	1	292	0.00	29.990 
03:40	66.0	66.0	66.0	81	60.0	0	0	---	0.00	29.990 
03:45	66.0	66.0	66.0	81	60.0	0	0	---	0.00	29.989 
03:50	66.0	66.0	66.0	81	60.0	0	0	---	0.00	29.989 
03:55	66.0	66.0	66.0	81	60.0	0	0	---	0.00	29.989 
04:00	66.1	66.1	66.1	81	60.1	0	0	---	0.00	29.991 
04:05	66.1	66.1	66.1	81	60.1	0	0	---	0.00	29.991 
04:10	66.1	66.1	66.1	80	59.7	0	0	---	0.00	29.991 
04:15	66.1	66.1	66.1	79	59.4	0	0	---	0.00	29.980 
04:20	66.1	66.1	66.1	80	59.7	0	0	---	0.00	29.980 
04:25	66.3	66.3	66.3	80	59.9	0	0	---	0.00	29.980 
04:30	66.3	66.3	66.3	79	59.6	0	0	---	0.00	29.975 
04:35	66.3	66.3	66.3	79	59.6	0	0	---	0.00	29.975 
04:40	66.3	66.3	66.3	79	59.6	0	0	---	0.00	29.975 
04:45	66.4	66.4	66.4	78	59.3	0	0	---	0.00	29.975 
04:50	66.4	66.4	66.4	78	59.3	0	0	---	0.00	29.975 
04:55	66.4	66.4	66.4	78	59.3	0	0	---	0.00	29.975 
05:00	66.6	66.6	66.6	78	59.5	0	0	---	0.00	29.968 
05:05	66.6	66.6	66.6	79	59.9	0	0	---	0.00	29.968 
05:10	66.6	66.6	66.6	79	59.9	0	0	---	0.00	29.968 
05:15	66.6	66.6	66.6	79	59.9	0	0	---	0.00	29.965 
05:20	66.6	66.6	66.6	79	59.9	0	2	292	0.00	29.965 
05:25	66.4	66.4	66.4	79	59.7	0	0	---	0.00	29.965 
05:30	66.4	66.4	66.4	79	59.7	0	0	---	0.00	29.973 
05:35	66.3	66.3	66.3	79	59.6	0	0	---	0.00	29.973 
05:40	66.1	66.1	66.1	79	59.4	0	0	---	0.00	29.973 
05:45	66.1	66.1	66.1	79	59.4	0	0	---	0.00	29.982 
05:50	66.0	66.0	66.0	80	59.6	0	0	---	0.00	29.982 
05:55	66.0	66.0	66.0	80	59.6	0	0	---	0.00	29.982 
06:00	65.8	65.8	65.8	80	59.5	0	0	---	0.00	29.980 
06:05	65.8	65.8	65.8	80	59.5	0	0	---	0.00	29.980 
06:10	65.8	65.8	65.8	80	59.5	0	0	---	0.00	29.980 
06:15	65.8	65.8	65.8	80	59.5	0	0	---	0.00	29.984 
06:20	65.8	65.8	65.8	80	59.5	0	0	---	0.00	29.984 
06:25	65.8	65.8	65.8	80	59.5	0	1	292	0.00	29.984 
06:30	66.0	66.0	66.0	79	59.3	0	1	292	0.00	29.986 
06:35	66.0	66.0	66.0	78	58.9	0	0	---	0.00	29.986 
06:40	66.1	66.1	66.1	79	59.4	0	0	---	0.00	29.986 
06:45	66.3	66.3	66.3	81	60.3	0	0	---	0.01	30.014 
06:50	66.1	66.1	66.1	82	60.4	0	0	---	0.03	30.014 
06:55	65.6	65.6	65.6	84	60.6	0	0	---	0.02	30.014 
07:00	65.5	65.5	65.5	85	60.9	0	0	---	0.03	30.016 
07:05	65.2	65.2	65.2	86	60.9	0	0	---	0.02	30.016 
07:10	65.0	65.0	65.0	87	61.0	0	0	---	0.02	30.016 
07:15	64.8	64.8	64.8	88	61.2	0	0	---	0.02	30.017 
07:20	64.7	64.7	64.7	88	61.1	0	0	---	0.02	30.017 
07:25	64.5	64.5	64.5	88	60.9	0	0	---	0.02	30.017 
07:30	64.5	64.5	64.5	89	61.2	0	0	---	0.01	30.018 
07:35	64.3	64.3	64.3	90	61.3	0	0	---	0.02	30.018 
07:40	64.3	64.3	64.3	90	61.3	0	0	---	0.02	30.018 
07:45	64.3	64.3	64.3	91	61.6	0	0	---	0.01	30.015 
07:50	64.2	64.2	64.2	91	61.5	0	1	292	0.00	30.015 
07:55	64.2	64.2	64.2	91	61.5	0	0	---	0.01	30.015 
08:00	64.2	64.2	64.2	92	61.8	0	1	135	0.01	30.015 
08:05	64.2	64.2	64.2	92	61.8	0	0	---	0.01	30.015 
08:10	64.2	64.2	64.2	92	61.8	0	0	---	0.02	30.015 
08:15	64.2	64.2	64.2	92	61.8	0	1	135	0.01	30.013 
08:20	64.2	64.2	64.2	92	61.8	0	1	135	0.02	30.013 
08:25	64.2	64.2	64.2	93	62.1	0	1	135	0.01	30.013 
08:30	64.2	64.2	64.2	93	62.1	0	1	135	0.02	30.004 
08:35	64.2	64.2	64.2	93	62.1	0	1	135	0.01	30.004 
08:40	64.2	64.2	64.2	93	62.1	0	0	---	0.01	30.004 
08:45	64.2	64.2	64.2	93	62.1	0	1	180	0.00	30.000 
08:50	64.2	64.2	64.2	93	62.1	0	0	---	0.01	30.000 
08:55	64.3	64.3	64.3	94	62.5	0	1	180	0.00	30.000 
09:00	64.3	64.3	64.3	94	62.5	0	1	180	0.01	29.996 
09:05	64.5	64.5	64.5	94	62.7	0	1	180	0.00	29.996 
09:10	64.5	64.5	64.5	94	62.7	0	1	248	0.01	29.996 
09:15	64.5	64.5	64.5	94	62.7	0	0	---	0.01	30.000 
09:20	64.5	64.5	64.5	94	62.7	0	0	---	0.00	30.000 
09:25	64.7	64.7	64.7	94	62.9	0	0	---	0.01	30.000 
09:30	64.8	64.8	64.8	94	63.0	0	0	---	0.00	29.997 
09:35	65.0	65.0	65.0	95	63.5	0	0	---	0.01	29.997 
09:40	65.2	65.2	65.2	95	63.7	0	0	---	0.01	29.997 
09:45	65.5	65.5	65.5	95	64.0	0	0	---	0.00	29.985 
09:50	65.6	65.6	65.6	95	64.1	0	1	270	0.01	29.985 
09:55	65.8	65.8	65.8	95	64.3	0	1	270	0.00	29.985 
10:00	66.1	66.1	66.1	95	64.6	0	1	270	0.00	29.969 
10:05	66.4	66.4	66.4	95	64.9	0	1	270	0.00	29.969 
10:10	66.6	66.6	66.6	95	65.1	0	3	22	0.00	29.969 
10:15	66.8	66.8	66.8	95	65.3	1	3	45	0.00	29.944 
10:20	66.8	66.8	66.8	95	65.3	1	3	45	0.00	29.944 
10:25	66.9	66.9	66.9	95	65.4	1	3	45	0.00	29.944 
10:30	66.9	66.9	66.9	95	65.4	1	4	68	0.00	29.932 
10:35	66.9	66.9	66.9	95	65.4	0	3	68	0.00	29.932 
10:40	66.9	66.9	66.9	95	65.4	0	1	68	0.00	29.932 
10:45	66.9	66.9	66.9	95	65.4	0	0	---	0.00	29.953 
10:50	66.9	66.9	66.9	95	65.4	0	0	---	0.00	29.953 
10:55	67.1	67.1	67.1	95	65.6	0	0	---	0.00	29.953 
11:00	67.1	67.1	67.1	95	65.6	0	0	---	0.00	29.956 
11:05	67.1	67.1	67.1	95	65.6	0	0	---	0.00	29.956 
11:10	67.3	67.3	67.3	95	65.8	0	1	68	0.00	29.956 
11:15	67.1	67.1	67.1	95	65.6	0	2	68	0.00	29.955 
11:20	67.3	67.3	67.3	95	65.8	0	2	68	0.00	29.955 
11:25	67.4	67.4	67.4	95	65.9	0	1	68	0.00	29.955 
11:30	67.6	67.6	67.6	95	66.1	0	0	---	0.00	29.960 
11:35	67.6	67.6	67.6	95	66.1	0	0	---	0.00	29.960 
11:40	67.6	67.6	67.6	95	66.1	0	1	68	0.00	29.960 
11:45	67.8	67.8	67.8	95	66.3	0	1	68	0.00	29.964 
11:50	68.1	68.1	68.1	95	66.6	0	1	68	0.00	29.964 
11:55	68.4	68.4	68.4	95	66.9	0	1	68	0.00	29.964 
12:00	68.4	68.4	68.4	95	66.9	0	1	68	0.00	29.964 
12:05	68.4	68.4	68.4	95	66.9	0	1	68	0.00	29.964 
12:10	68.4	68.4	68.4	95	66.9	0	1	68	0.00	29.964 
12:15	68.4	68.4	68.4	95	66.9	0	0	---	0.00	29.965 
12:20	68.6	68.6	68.6	95	67.1	0	2	68	0.00	29.965 
12:25	68.8	68.8	68.8	95	67.3	0	1	68	0.00	29.965 
12:30	68.8	68.8	68.8	94	67.0	0	0	---	0.00	29.963 
12:35	68.9	68.9	68.9	94	67.1	0	1	68	0.00	29.963 
12:40	69.3	69.3	69.3	94	67.5	0	1	68	0.00	29.963 
12:45	69.4	69.4	69.4	94	67.6	0	1	68	0.00	29.959 
12:50	69.4	69.4	69.4	94	67.6	0	1	68	0.00	29.959 
12:55	69.6	69.6	69.6	94	67.8	0	0	---	0.00	29.959 
13:00	69.6	69.6	69.6	93	67.5	0	1	68	0.00	29.956 
13:05	69.6	69.6	69.6	93	67.5	0	0	---	0.00	29.956 
13:10	69.6	69.6	69.6	93	67.5	0	1	68	0.00	29.956 
13:15	69.8	69.8	69.8	93	67.7	0	2	68	0.00	29.952 
13:20	69.8	69.8	69.8	92	67.4	0	1	68	0.00	29.952 
13:25	70.1	70.1	70.1	92	67.7	0	3	68	0.00	29.952 
13:30	70.4	70.4	70.4	92	68.0	0	1	68	0.00	29.948 
13:35	70.9	70.9	70.9	91	68.1	0	1	68	0.00	29.948 
13:40	71.6	71.6	71.6	91	68.8	0	1	68	0.00	29.948 
13:45	72.1	72.1	72.1	89	68.7	0	1	68	0.00	29.938 
13:50	71.8	71.8	71.8	87	67.7	1	3	270	0.00	29.938 
13:55	72.0	72.0	72.0	87	67.9	0	2	270	0.00	29.938 
14:00	72.7	72.7	72.7	85	67.9	0	1	270	0.00	29.935 
14:05	73.0	73.0	73.0	84	67.9	0	1	292	0.00	29.935 
14:10	73.2	73.2	73.2	84	68.1	1	3	292	0.00	29.935 
14:15	73.2	73.2	73.2	83	67.7	0	1	292	0.00	29.932 
14:20	73.5	73.5	73.5	83	68.0	0	1	292	0.00	29.932 
14:25	74.2	74.2	74.2	83	68.7	0	2	292	0.00	29.932 
14:30	74.9	74.9	74.9	81	68.7	0	1	292	0.00	29.922 
14:35	75.1	75.1	75.8	79	68.1	0	2	292	0.00	29.922 
14:40	75.1	75.1	76.0	78	67.8	0	1	292	0.00	29.922 
14:45	74.9	74.9	74.9	79	67.9	0	0	---	0.00	29.922 
14:50	74.9	74.9	74.9	79	67.9	0	1	292	0.00	29.922 
14:55	75.3	75.3	76.1	79	68.3	0	1	292	0.00	29.922 
15:00	75.8	75.8	77.0	77	68.1	0	2	292	0.00	29.919 
15:05	76.3	76.3	77.7	75	67.8	1	3	292	0.00	29.919 
15:10	76.3	76.3	77.7	75	67.8	0	2	292	0.00	29.919 
15:15	76.0	76.0	77.4	75	67.5	0	1	292	0.00	29.911 
15:20	75.8	75.8	77.2	74	66.9	1	2	292	0.00	29.911 
15:25	76.0	76.0	77.4	75	67.5	0	2	292	0.00	29.911 
15:30	76.5	76.5	78.0	75	68.0	0	1	292	0.00	29.906 
15:35	76.7	76.7	78.3	74	67.8	0	1	292	0.00	29.906 
15:40	76.5	76.5	78.1	73	67.2	0	0	---	0.00	29.906 
15:45	76.1	76.1	77.5	74	67.2	0	1	292	0.00	29.905 
15:50	75.8	75.8	77.3	73	66.5	0	0	---	0.00	29.905 
15:55	75.8	75.8	77.2	74	66.9	0	0	---	0.00	29.905 
16:00	76.1	76.1	77.5	74	67.2	0	1	292	0.00	29.905 
16:05	76.7	76.7	78.3	75	68.2	0	1	292	0.00	29.905 
16:10	77.0	77.0	78.7	73	67.7	0	0	---	0.00	29.905 
16:15	77.0	77.0	78.8	71	66.9	0	2	292	0.00	29.905 
16:20	76.8	76.8	78.5	72	67.1	0	1	292	0.00	29.905 
16:25	76.8	76.8	78.5	72	67.1	0	1	292	0.00	29.905 
16:30	77.2	77.2	79.0	72	67.5	0	1	292	0.00	29.896 
16:35	77.9	77.9	79.9	72	68.1	0	1	292	0.00	29.896 
16:40	78.6	78.6	80.8	70	68.0	0	2	292	0.00	29.896 
16:45	79.0	79.0	81.4	70	68.4	0	1	292	0.00	29.892 
16:50	79.2	79.2	81.6	69	68.1	0	1	292	0.00	29.892 
16:55	79.4	79.4	82.1	71	69.2	0	0	---	0.00	29.892 
17:00	79.4	79.4	81.7	67	67.5	0	1	292	0.00	29.888 
17:05	79.2	79.2	81.5	68	67.7	0	1	292	0.00	29.888 
17:10	78.6	78.6	80.7	68	67.1	0	1	180	0.00	29.888 
17:15	78.5	78.5	80.7	69	67.5	0	1	180	0.00	29.887 
17:20	78.1	78.1	80.1	69	67.1	0	0	---	0.00	29.887 
17:25	77.9	77.9	79.9	71	67.7	0	1	180	0.00	29.887 
17:30	77.9	77.9	79.9	72	68.1	0	1	180	0.00	29.884 
17:35	77.7	77.7	79.7	71	67.5	0	1	180	0.00	29.884 
17:40	77.7	77.7	79.6	70	67.1	0	3	180	0.00	29.884 
17:45	77.7	77.7	79.7	72	67.9	0	1	112	0.00	29.884 
17:50	77.7	77.7	79.7	71	67.5	0	1	112	0.00	29.884 
17:55	77.7	77.7	79.7	71	67.5	0	0	---	0.00	29.884 
18:00	77.7	77.7	79.7	72	67.9	0	0	---	0.00	29.885 
18:05	77.7	77.7	79.7	72	67.9	0	0	---	0.00	29.885 
18:10	77.9	77.9	79.9	72	68.1	0	1	112	0.00	29.885 
18:15	77.9	77.9	79.9	71	67.7	0	1	112	0.00	29.878 
18:20	78.1	78.1	80.2	71	67.9	0	0	---	0.00	29.878 
18:25	78.3	78.3	80.5	71	68.1	0	1	180	0.00	29.878 
18:30	78.1	78.1	80.1	69	67.1	0	1	180	0.00	29.873 
18:35	78.1	78.1	80.2	70	67.5	0	1	180	0.00	29.873 
18:40	78.1	78.1	80.1	69	67.1	0	1	180	0.00	29.873 
18:45	78.1	78.1	80.1	69	67.1	0	1	180	0.00	29.868 
18:50	78.1	78.1	80.1	68	66.7	0	1	68	0.00	29.868 
18:55	78.1	78.1	80.1	69	67.1	0	1	68	0.00	29.868 
19:00	77.9	77.9	79.9	70	67.3	0	2	45	0.00	29.859 
19:05	77.7	77.7	79.6	69	66.7	1	7	22	0.00	29.859 
19:10	75.1	75.1	76.5	73	65.8	6	12	292	0.01	29.859 
19:15	71.6	71.6	71.6	81	65.4	3	10	338	0.00	29.898 
19:20	69.9	69.9	69.9	85	65.2	3	9	315	0.00	29.898 
19:25	69.4	69.4	69.4	87	65.4	1	5	112	0.00	29.898 
19:30	69.4	69.4	69.4	88	65.7	1	4	112	0.00	29.896 
19:35	69.4	69.4	69.4	88	65.7	1	4	90	0.00	29.896 
19:40	69.1	69.1	69.1	88	65.4	1	4	90	0.00	29.896 
19:45	69.1	69.1	69.1	89	65.7	0	2	90	0.00	29.906 
19:50	69.3	69.3	69.3	89	65.9	0	2	90	0.00	29.906 
19:55	69.3	69.3	69.3	90	66.2	0	2	90	0.00	29.906 
20:00	69.1	69.1	69.1	89	65.7	0	1	90	0.00	29.899 
20:05	69.1	69.1	69.1	90	66.0	0	2	90	0.00	29.899 
20:10	69.1	69.1	69.1	90	66.0	0	1	90	0.00	29.899 
20:15	69.1	69.1	69.1	90	66.0	0	0	---	0.00	29.904 
20:20	69.1	69.1	69.1	90	66.0	0	0	---	0.01	29.904 
20:25	69.1	69.1	69.1	91	66.4	0	0	---	0.00	29.904 
20:30	69.1	69.1	69.1	91	66.4	0	0	---	0.00	29.912 
20:35	69.1	69.1	69.1	91	66.4	0	0	---	0.00	29.912 
20:40	69.1	69.1	69.1	91	66.4	0	0	---	0.00	29.912 
20:45	68.8	68.8	68.8	91	66.1	0	0	---	0.00	29.913 
20:50	68.8	68.8	68.8	91	66.1	0	0	---	0.00	29.913 
20:55	68.8	68.8	68.8	91	66.1	0	1	90	0.00	29.913 
21:00	68.6	68.6	68.6	92	66.2	0	2	90	0.00	29.903 
21:05	68.6	68.6	68.6	92	66.2	0	0	---	0.00	29.903 
21:10	68.6	68.6	68.6	92	66.2	0	0	---	0.00	29.903 
21:15	68.6	68.6	68.6	92	66.2	0	0	---	0.00	29.897 
21:20	68.6	68.6	68.6	92	66.2	0	1	90	0.00	29.897 
21:25	68.6	68.6	68.6	92	66.2	0	0	---	0.00	29.897 
21:30	68.6	68.6	68.6	92	66.2	0	1	90	0.00	29.895 
21:35	68.8	68.8	68.8	92	66.4	0	0	---	0.00	29.895 
21:40	68.8	68.8	68.8	93	66.7	0	0	---	0.00	29.895 
21:45	68.8	68.8	68.8	93	66.7	0	0	---	0.00	29.898 
21:50	68.9	68.9	68.9	93	66.8	0	1	90	0.00	29.898 
21:55	68.9	68.9	68.9	93	66.8	0	0	---	0.00	29.898 
22:00	68.9	68.9	68.9	93	66.8	0	0	---	0.00	29.909 
22:05	69.1	69.1	69.1	93	67.0	0	0	---	0.00	29.909 
22:10	69.1	69.1	69.1	93	67.0	0	0	---	0.00	29.909 
22:15	69.1	69.1	69.1	94	67.3	0	0	---	0.00	29.909 
22:20	69.3	69.3	69.3	94	67.5	0	1	90	0.00	29.909 
22:25	69.3	69.3	69.3	94	67.5	0	1	90	0.00	29.909 
22:30	69.4	69.4	69.4	94	67.6	0	1	90	0.00	29.910 
22:35	69.4	69.4	69.4	94	67.6	0	1	90	0.00	29.910 
22:40	69.6	69.6	69.6	94	67.8	0	1	90	0.00	29.910 
22:45	69.6	69.6	69.6	94	67.8	1	3	90	0.00	29.912 
22:50	69.6	69.6	69.6	94	67.8	0	3	90	0.00	29.912 
22:55	69.4	69.4	69.4	94	67.6	0	2	90	0.00	29.912 
23:00	69.4	69.4	69.4	94	67.6	0	3	90	0.00	29.925 
23:05	69.3	69.3	69.3	94	67.5	1	3	90	0.00	29.925 
23:10	69.3	69.3	69.3	94	67.5	1	4	90	0.00	29.925 
23:15	69.3	69.3	69.3	94	67.5	1	3	90	0.00	29.908 
23:20	69.1	69.1	69.1	94	67.3	1	5	90	0.00	29.908 
23:25	69.1	69.1	69.1	94	67.3	1	4	90	0.00	29.908 
23:30	68.9	68.9	68.9	94	67.1	1	5	90	0.00	29.897 
23:35	68.9	68.9	68.9	94	67.1	1	3	90	0.00	29.897 
23:40	68.8	68.8	68.8	94	67.0	1	3	90	0.00	29.897 
23:45	68.8	68.8	68.8	94	67.0	0	2	90	0.00	29.915 
23:50	68.8	68.8	68.8	95	67.3	0	3	90	0.00	29.915 
23:55	68.8	68.8	68.8	94	67.0	0	2	90	0.00	29.915 

CoCoRaHS
IN-AL-39
A2 Web Hosting
Creative Commons License
GoDaddy
search engine by freefind advanced

loaded 2018-11-15 05:36:09 • last modified 2010-11-18 10:43:29
Privacy PolicyDisclaimer
• wx.awcolley.com is powered by PmWiki v.2002016 •
• all content (unless otherwise noted) © 2018 A W Colley